Terminal Aerodrome Forecast
Issued by NWS

Home | Current Version | Previous Version | Text Only | Print | Product List | Glossary On
Versions: 1 2 3 4 5 6 7 8 9 10 11 12 13
000
FTAK31 PAFA 241304 AAA
TAFAOR
TAF AMD
PAOR 241304Z 2413/2512 VRB03KT 6SM -SHRA BR SCT015 BKN030
     FM242300 11004KT P6SM VCSH SCT020 BKN040
     FM250300 13003KT P6SM BKN100=

USA.gov is the U.S. government's official web portal to all federal, state and local government web resources and services.